createdAt,value
2018-04-19T00:03:44.701Z,10.48
2018-04-19T00:07:45.453Z,9.04
2018-04-19T00:13:46.326Z,8.68
2018-04-19T00:17:47.192Z,8.78
2018-04-19T00:19:47.891Z,9.37
2018-04-19T00:23:48.765Z,8.76
2018-04-19T00:29:49.546Z,9
2018-04-19T00:33:50.246Z,8.64
2018-04-19T00:39:51.035Z,8.78
2018-04-19T00:45:51.835Z,9.16
2018-04-19T00:49:52.617Z,8.83
2018-04-19T00:55:53.821Z,9.41
2018-04-19T00:59:54.584Z,8.52
2018-04-19T01:01:55.333Z,8.33
2018-04-19T01:05:55.995Z,8.71
2018-04-19T01:11:56.737Z,8.84
2018-04-19T01:15:57.478Z,7.89
2018-04-19T01:21:58.287Z,8.9
2018-04-19T01:27:59.032Z,9.46
2018-04-19T01:31:59.788Z,8.89
2018-04-19T01:38:00.614Z,9.4
2018-04-19T01:42:01.302Z,8.99
2018-04-19T01:44:02.031Z,9.53
2018-04-19T01:48:02.779Z,9.27
2018-04-19T01:54:03.433Z,9.91
2018-04-19T01:58:04.305Z,9.24
2018-04-19T02:04:05.095Z,10.69
2018-04-19T02:08:05.953Z,9.83
2018-04-19T02:10:06.815Z,10.31
2018-04-19T02:14:07.640Z,10.14
2018-04-19T02:20:08.270Z,8.4
2018-04-19T02:24:08.985Z,8.05
2018-04-19T02:30:10.133Z,9.93
2018-04-19T02:36:10.926Z,8.45
2018-04-19T02:40:11.784Z,8.76
2018-04-19T02:46:12.571Z,8.77
2018-04-19T02:50:13.322Z,8.64
2018-04-19T02:52:14.152Z,8.12
2018-04-19T02:56:14.940Z,7.56
2018-04-19T03:02:15.996Z,9.68
2018-04-19T03:06:16.772Z,8.78
2018-04-19T03:12:17.428Z,7.82
2018-04-19T03:18:18.241Z,8.48
2018-04-19T03:22:18.972Z,7.83
2018-04-19T03:28:19.607Z,8.04
2018-04-19T03:32:20.312Z,7.78
2018-04-19T03:38:21.101Z,8.24
2018-04-19T03:44:21.783Z,8.31
2018-04-19T03:48:22.511Z,7.67
2018-04-19T03:54:23.446Z,8.6
2018-04-19T03:58:24.234Z,7.9
2018-04-19T04:00:25.074Z,12.48
2018-04-19T04:04:25.860Z,13.15
2018-04-19T04:10:26.808Z,8.72
2018-04-19T04:14:27.658Z,7.38
2018-04-19T04:20:28.513Z,8.91
2018-04-19T04:26:29.390Z,9.02
2018-04-19T04:30:30.139Z,7.51
2018-04-19T04:36:31.045Z,8.6
2018-04-19T04:40:31.852Z,8.32
2018-04-19T04:42:32.653Z,9.09
2018-04-19T04:46:33.466Z,8.57
2018-04-19T04:52:34.329Z,8.26
2018-04-19T04:56:35.274Z,7.43
2018-04-19T05:02:36.153Z,8.79
2018-04-19T05:08:37.153Z,8.29
2018-04-19T05:12:37.861Z,8.23
2018-04-19T05:18:38.695Z,8.92
2018-04-19T05:22:39.447Z,8.27
2018-04-19T05:28:40.243Z,8.88
2018-04-19T05:34:41.067Z,8.51
2018-04-19T05:38:41.810Z,8.03
2018-04-19T05:44:42.697Z,9.64
2018-04-19T05:48:43.527Z,9.87
2018-04-19T05:50:44.382Z,8.31
2018-04-19T05:54:45.210Z,9.06
2018-04-19T06:00:46.203Z,11.63
2018-04-19T06:04:47.082Z,10.39
2018-04-19T06:10:47.899Z,10.43
2018-04-19T06:16:49.856Z,14.9
2018-04-19T06:20:51.214Z,10.11
2018-04-19T06:26:52.041Z,9.37
2018-04-19T06:30:52.828Z,8.85
2018-04-19T06:32:53.600Z,8.79
2018-04-19T06:36:54.515Z,8.98
2018-04-19T06:42:55.479Z,9.28
2018-04-19T06:46:56.316Z,8.32
2018-04-19T06:52:57.141Z,9.44
2018-04-19T06:56:57.962Z,9.84
2018-04-19T06:58:58.697Z,10.27
2018-04-19T07:02:59.474Z,8.95
2018-04-19T07:09:00.348Z,11.16
2018-04-19T07:13:01.112Z,10.6
2018-04-19T07:19:01.838Z,11.9
2018-04-19T07:25:02.550Z,12.05
2018-04-19T07:29:03.424Z,10.44
2018-04-19T07:35:04.236Z,10.62
2018-04-19T07:39:05.039Z,9.67
2018-04-19T07:41:06.115Z,10.61
2018-04-19T07:45:07.121Z,10.35
2018-04-19T07:51:08.015Z,11.02
2018-04-19T07:55:08.901Z,10.77
2018-04-19T08:01:09.735Z,12.33
2018-04-19T08:05:10.449Z,11.26
2018-04-19T08:07:11.183Z,10.78
2018-04-19T08:11:11.991Z,9.78
2018-04-19T08:17:12.710Z,10.39
2018-04-19T08:21:13.457Z,10.12
2018-04-19T08:27:14.357Z,10.67
2018-04-19T08:33:15.120Z,10.13
2018-04-19T08:37:15.852Z,9.42
2018-04-19T08:43:16.721Z,11.61
2018-04-19T08:47:17.837Z,10.32
2018-04-19T08:49:18.534Z,11.5
2018-04-19T08:53:19.265Z,10.27
2018-04-19T08:59:20.122Z,11.74
2018-04-19T09:03:20.902Z,10.84
2018-04-19T09:09:21.800Z,10.56
2018-04-19T09:15:22.683Z,10.72
2018-04-19T09:19:23.467Z,10.07
2018-04-19T09:25:24.398Z,11.19
2018-04-19T09:29:25.155Z,10.56
2018-04-19T09:35:25.889Z,10.52
2018-04-19T09:41:26.715Z,10.05
2018-04-19T09:45:28.106Z,9.32
2018-04-19T09:51:28.986Z,9.57
2018-04-19T09:55:29.688Z,9.65
2018-04-19T09:57:30.429Z,10.15
2018-04-19T10:01:31.164Z,9.05
2018-04-19T10:07:31.811Z,10.57
2018-04-19T10:11:32.588Z,10.57
2018-04-19T10:17:33.396Z,11.03
2018-04-19T10:23:34.288Z,15.11
2018-04-19T10:27:35.185Z,15.18
2018-04-19T10:33:36.099Z,10
2018-04-19T10:37:37.301Z,10.16
2018-04-19T10:39:38.019Z,10.15
2018-04-19T10:43:38.780Z,10.27
2018-04-19T10:49:39.582Z,10.29
2018-04-19T10:53:40.261Z,11.41
2018-04-19T10:59:41.016Z,10.72
2018-04-19T11:03:41.747Z,9.75
2018-04-19T11:05:42.608Z,9.39
2018-04-19T11:09:43.391Z,9.04
2018-04-19T11:15:44.331Z,9.28
2018-04-19T11:19:45.082Z,9.47
2018-04-19T11:25:45.976Z,12.3
2018-04-19T11:31:46.915Z,10.57
2018-04-19T11:35:47.798Z,10.88
2018-04-19T11:41:48.975Z,12.25
2018-04-19T11:45:49.783Z,11.1
2018-04-19T11:47:50.554Z,9.8
2018-04-19T11:51:51.440Z,8.82
2018-04-19T11:57:52.453Z,10.48
2018-04-19T12:01:53.176Z,9.83
2018-04-19T12:07:54.324Z,10.82
2018-04-19T12:11:55.404Z,9.07
2018-04-19T12:13:56.550Z,9.6
2018-04-19T12:17:57.447Z,9.07
2018-04-19T12:23:58.225Z,10.17
2018-04-19T12:27:59.363Z,10.08
2018-04-19T12:34:00.175Z,9.99
2018-04-19T12:40:01.036Z,10.32
2018-04-19T12:44:01.894Z,11.01
2018-04-19T12:50:02.699Z,12.71
2018-04-19T12:54:03.846Z,10.83
2018-04-19T12:56:04.553Z,11.7
2018-04-19T13:00:05.324Z,9.88
2018-04-19T13:06:06.195Z,10.03
2018-04-19T13:10:06.924Z,8.77
2018-04-19T13:16:07.614Z,8.8
2018-04-19T13:22:08.452Z,11.04
2018-04-19T13:26:09.270Z,10.76
2018-04-19T13:32:10.029Z,10.52
2018-04-19T13:36:10.866Z,10.35
2018-04-19T13:42:12.003Z,8.97
2018-04-19T13:48:12.827Z,10.67
2018-04-19T13:52:13.745Z,10
2018-04-19T13:58:14.637Z,10.03
2018-04-19T14:02:15.358Z,9.81
2018-04-19T14:04:16.122Z,9.14
2018-04-19T14:08:16.973Z,11.21
2018-04-19T14:14:17.883Z,11.19
2018-04-19T14:18:18.611Z,10.44
2018-04-19T14:24:19.489Z,11.79
2018-04-19T14:30:20.589Z,13.69
2018-04-19T14:34:21.573Z,11.11
2018-04-19T14:40:22.336Z,12.32
2018-04-19T14:44:23.172Z,10.73
2018-04-19T14:46:24.003Z,11.95
2018-04-19T14:50:24.844Z,11.65
2018-04-19T14:56:25.610Z,14.89
2018-04-19T15:00:26.636Z,11.85
2018-04-19T15:06:27.411Z,12.94
2018-04-19T15:10:28.121Z,12.65
2018-04-19T15:12:28.888Z,11.83
2018-04-19T15:16:30.294Z,11.42
2018-04-19T15:26:33.447Z,12.52
2018-04-19T15:26:33.574Z,12.52
2018-04-19T15:32:34.311Z,11.05
2018-04-19T15:38:35.141Z,10.74
2018-04-19T15:42:35.865Z,10.32
2018-04-19T15:48:36.624Z,10.71
2018-04-19T15:52:37.551Z,12.61
2018-04-19T15:54:38.688Z,11.82
2018-04-19T15:58:39.581Z,12.87
2018-04-19T16:04:40.481Z,12.63
2018-04-19T16:08:41.857Z,12.53
2018-04-19T16:14:42.675Z,10.53
2018-04-19T16:18:43.525Z,10.08
2018-04-19T16:20:44.293Z,12.41
2018-04-19T16:24:45.021Z,11.87
2018-04-19T16:30:46.164Z,11.97
2018-04-19T16:34:47.222Z,11.68
2018-04-19T16:40:47.928Z,12.25
2018-04-19T16:46:48.693Z,11.35
2018-04-19T16:50:49.395Z,11.77
2018-04-19T16:56:50.650Z,11.78
2018-04-19T17:00:51.503Z,14.09
2018-04-19T17:02:52.325Z,13.01
2018-04-19T17:06:53.046Z,11.5
2018-04-19T17:12:54.031Z,11.88
2018-04-19T17:16:54.891Z,10.95
2018-04-19T17:22:55.964Z,11.96
2018-04-19T17:28:56.920Z,10.97
2018-04-19T17:32:58.045Z,11.14
2018-04-19T17:38:59.035Z,12.99
2018-04-19T17:42:59.968Z,12.58
2018-04-19T17:49:00.714Z,11.47
2018-04-19T17:55:01.556Z,11.09
2018-04-19T17:59:02.394Z,11.07
2018-04-19T18:05:03.172Z,12.55
2018-04-19T18:09:04.034Z,10.61
2018-04-19T18:11:04.855Z,14.51
2018-04-19T18:15:05.767Z,13.73
2018-04-19T18:21:06.564Z,10.43
2018-04-19T18:25:07.408Z,12.71
2018-04-19T18:31:08.598Z,19.39
2018-04-19T18:37:09.277Z,12
2018-04-19T18:41:10.056Z,13.16
2018-04-19T18:47:10.984Z,17.01
2018-04-19T18:51:11.749Z,14.73
2018-04-19T18:53:12.551Z,11.34
2018-04-19T18:57:13.232Z,13.07
2018-04-19T19:03:14.018Z,12.18
2018-04-19T19:07:14.933Z,12.27
2018-04-19T19:13:15.709Z,18.56
2018-04-19T19:17:16.741Z,17.93
2018-04-19T19:19:17.804Z,13.55
2018-04-19T19:23:18.532Z,14.67
2018-04-19T19:29:19.387Z,12.67
2018-04-19T19:33:20.218Z,14.69
2018-04-19T19:39:21.055Z,18.14
2018-04-19T19:45:21.977Z,15.92
2018-04-19T19:49:22.716Z,14.49
2018-04-19T19:55:23.662Z,12.07
2018-04-19T19:59:24.507Z,11.12
2018-04-19T20:01:25.272Z,16.55
2018-04-19T20:05:25.940Z,15.16
2018-04-19T20:11:26.717Z,16.13
2018-04-19T20:15:27.816Z,17.28
2018-04-19T20:21:28.646Z,16.42
2018-04-19T20:25:29.494Z,14.71
2018-04-19T20:27:30.290Z,12.64
2018-04-19T20:31:31.124Z,13.18
2018-04-19T20:37:31.945Z,10.15
2018-04-19T20:41:32.857Z,11.94
2018-04-19T20:47:33.711Z,13.4
2018-04-19T20:53:34.507Z,11.97
2018-04-19T20:57:35.300Z,12.54
2018-04-19T21:03:36.110Z,14.45
2018-04-19T21:07:44.411Z,12.9
2018-04-19T21:13:45.291Z,13.77
2018-04-19T21:19:46.097Z,11.01
2018-04-19T21:23:46.847Z,9.18
2018-04-19T21:29:47.747Z,10.45
2018-04-19T21:33:48.519Z,10.54
2018-04-19T21:35:49.436Z,10.34
2018-04-19T21:39:50.198Z,9.79
2018-04-19T21:45:50.964Z,12.84
2018-04-19T21:49:51.874Z,9.22
2018-04-19T21:55:52.657Z,13.13
2018-04-19T22:01:53.450Z,10.12
2018-04-19T22:05:54.154Z,11.53
2018-04-19T22:11:55.014Z,12.76
2018-04-19T22:15:55.856Z,11.87
2018-04-19T22:21:56.616Z,11.51
2018-04-19T22:27:57.338Z,13.59
2018-04-19T22:31:58.119Z,14.54
2018-04-19T22:37:58.875Z,15.35
2018-04-19T22:41:59.667Z,13.32
2018-04-19T22:44:00.481Z,12.73
2018-04-19T22:48:01.058Z,11.81
2018-04-19T22:54:01.805Z,13.68
2018-04-19T22:58:02.489Z,13.52
2018-04-19T23:04:03.285Z,15.8
2018-04-19T23:10:04.022Z,12.76
2018-04-19T23:14:04.810Z,13.55
2018-04-19T23:20:05.505Z,15.15
2018-04-19T23:24:06.299Z,13.54
2018-04-19T23:26:06.950Z,16.11
2018-04-19T23:30:07.796Z,17.86
2018-04-19T23:36:08.505Z,15.83
2018-04-19T23:40:09.216Z,13.56
2018-04-19T23:46:10.131Z,13.54
2018-04-19T23:50:10.909Z,13.18
2018-04-19T23:52:11.638Z,11.68
2018-04-19T23:56:12.387Z,11.28
